Time;durP1;ratioP1;P1;durP2;ratioP2;P2;SDS_P1;SDS_P2;PMS_P1;PMS_P2;Temp;Humidity;BMP_temperature;BMP_pressure;BME280_temperature;BME280_humidity;BME280_pressure;Samples;Min_cycle;Max_cycle;Signal;HPM_P1;HPM_P2
2022/03/06 00:00:06;;;;;;;15.88;9.77;;;;;;;;;;5185604;27;20195;-77
2022/03/06 00:02:32;;;;;;;21.15;11.05;;;;;;;;;;5211585;27;20191;-78
2022/03/06 00:04:58;;;;;;;20.40;10.23;;;;;;;;;;5212240;27;20639;-75
2022/03/06 00:07:24;;;;;;;21.35;11.30;;;;;;;;;;5151628;27;20229;-77
2022/03/06 00:09:50;;;;;;;19.37;9.83;;;;;;;;;;5097900;28;20539;-78
2022/03/06 00:12:17;;;;;;;20.63;10.73;;;;;;;;;;5117468;27;20433;-76
2022/03/06 00:14:43;;;;;;;16.42;10.48;;;;;;;;;;5073702;28;20442;-76
2022/03/06 00:17:09;;;;;;;18.05;9.05;;;;;;;;;;5049721;28;20216;-78
2022/03/06 00:22:16;;;;;;;14.73;10.55;;;;;;;;;;5193256;27;20481;-77
2022/03/06 00:24:42;;;;;;;18.20;10.00;;;;;;;;;;5187571;27;20188;-77
2022/03/06 00:27:08;;;;;;;18.08;11.13;;;;;;;;;;5174924;27;20461;-76
2022/03/06 00:29:34;;;;;;;20.95;10.25;;;;;;;;;;5170584;27;20559;-78
2022/03/06 00:32:00;;;;;;;21.90;12.50;;;;;;;;;;5092263;27;20295;-78
2022/03/06 00:34:26;;;;;;;17.30;10.65;;;;;;;;;;4995348;28;20191;-75
2022/03/06 00:36:52;;;;;;;18.23;11.70;;;;;;;;;;4991230;28;20211;-78
2022/03/06 00:39:18;;;;;;;17.50;12.00;;;;;;;;;;4897652;28;20206;-78
2022/03/06 00:41:44;;;;;;;21.63;12.17;;;;;;;;;;4852291;29;20232;-76
2022/03/06 00:46:47;;;;;;;16.23;9.98;;;;;;;;;;5179557;27;20497;-76
2022/03/06 00:49:13;;;;;;;25.30;12.40;;;;;;;;;;5187097;27;20190;-77
2022/03/06 00:51:39;;;;;;;19.48;11.48;;;;;;;;;;5212199;27;20187;-77
2022/03/06 00:54:05;;;;;;;19.25;10.82;;;;;;;;;;5212843;27;20273;-78
2022/03/06 00:56:31;;;;;;;22.45;10.80;;;;;;;;;;5169133;27;20704;-77
2022/03/06 00:58:57;;;;;;;22.40;11.30;;;;;;;;;;5105104;28;20210;-77
2022/03/06 01:01:23;;;;;;;20.10;10.50;;;;;;;;;;5123912;28;20996;-76
2022/03/06 01:03:49;;;;;;;18.58;10.65;;;;;;;;;;5106283;27;20506;-79
2022/03/06 01:06:15;;;;;;;25.73;13.60;;;;;;;;;;4931406;28;20576;-76
2022/03/06 01:11:20;;;;;;;21.60;10.90;;;;;;;;;;5192667;27;20483;-76
2022/03/06 01:13:47;;;;;;;20.38;10.90;;;;;;;;;;5187850;27;20179;-75
2022/03/06 01:16:13;;;;;;;19.10;10.88;;;;;;;;;;5185382;27;20556;-76
2022/03/06 01:18:39;;;;;;;20.80;12.60;;;;;;;;;;5191505;27;20186;-74
2022/03/06 01:21:05;;;;;;;19.42;12.20;;;;;;;;;;5123401;27;20506;-76
2022/03/06 01:23:31;;;;;;;17.13;11.73;;;;;;;;;;5075753;28;20199;-75
2022/03/06 01:25:57;;;;;;;24.85;12.23;;;;;;;;;;5072749;28;20215;-77
2022/03/06 01:28:24;;;;;;;25.95;12.95;;;;;;;;;;5097860;28;20183;-75
2022/03/06 01:30:50;;;;;;;24.05;13.35;;;;;;;;;;5014908;28;20634;-76
2022/03/06 01:36:04;;;;;;;24.48;12.88;;;;;;;;;;5185827;27;20843;-76
2022/03/06 01:38:30;;;;;;;25.85;13.35;;;;;;;;;;5187810;27;20186;-77
2022/03/06 01:40:57;;;;;;;32.63;13.70;;;;;;;;;;5172370;27;20672;-76
2022/03/06 01:43:23;;;;;;;21.02;11.13;;;;;;;;;;5191498;27;20418;-76
2022/03/06 01:45:49;;;;;;;17.50;11.63;;;;;;;;;;5120019;27;20214;-75
2022/03/06 01:48:15;;;;;;;20.83;11.90;;;;;;;;;;5104811;28;20197;-77
2022/03/06 01:50:41;;;;;;;24.23;12.80;;;;;;;;;;5096533;28;20203;-76
2022/03/06 01:53:08;;;;;;;22.60;12.27;;;;;;;;;;4960003;28;20637;-78
2022/03/06 01:55:35;;;;;;;22.05;11.25;;;;;;;;;;4815828;29;20555;-76
2022/03/06 02:00:44;;;;;;;19.58;11.80;;;;;;;;;;5192408;27;20492;-76
2022/03/06 02:03:10;;;;;;;20.77;11.38;;;;;;;;;;5169380;27;20180;-75
2022/03/06 02:05:36;;;;;;;21.48;12.27;;;;;;;;;;5170101;27;20202;-77
2022/03/06 02:08:02;;;;;;;21.52;12.10;;;;;;;;;;5170220;27;20193;-75
2022/03/06 02:10:28;;;;;;;27.27;13.55;;;;;;;;;;5160667;27;20197;-76
2022/03/06 02:12:54;;;;;;;19.80;12.68;;;;;;;;;;5162832;27;20199;-77
2022/03/06 02:15:20;;;;;;;26.77;12.75;;;;;;;;;;5143692;27;20190;-76
2022/03/06 02:17:46;;;;;;;23.05;11.15;;;;;;;;;;5080914;28;20206;-75
2022/03/06 02:20:14;;;;;;;25.30;12.32;;;;;;;;;;5027474;28;20222;-77
2022/03/06 02:25:22;;;;;;;27.80;11.68;;;;;;;;;;5191991;27;20489;-76
2022/03/06 02:27:48;;;;;;;18.67;10.75;;;;;;;;;;5187902;27;20638;-77
2022/03/06 02:30:16;;;;;;;22.60;13.65;;;;;;;;;;5192127;27;20265;-75
2022/03/06 02:32:43;;;;;;;22.33;11.85;;;;;;;;;;5170144;27;20239;-76
2022/03/06 02:35:10;;;;;;;26.48;13.75;;;;;;;;;;5165845;27;20194;-76
2022/03/06 02:37:36;;;;;;;25.17;12.27;;;;;;;;;;5155532;27;20263;-76
2022/03/06 02:40:04;;;;;;;25.23;12.48;;;;;;;;;;5165733;27;20211;-78
2022/03/06 02:45:11;;;;;;;33.55;14.10;;;;;;;;;;5024876;22;20257;-79
2022/03/06 02:49:46;;;;;;;24.85;13.00;;;;;;;;;;5193255;27;20480;-75
2022/03/06 02:52:12;;;;;;;29.50;12.63;;;;;;;;;;5187668;27;20192;-76
2022/03/06 02:54:39;;;;;;;27.08;13.45;;;;;;;;;;5192082;27;20239;-75
2022/03/06 02:57:05;;;;;;;22.40;12.60;;;;;;;;;;5175437;27;20209;-76
2022/03/06 02:59:31;;;;;;;21.55;11.60;;;;;;;;;;5116250;28;20191;-75
2022/03/06 03:01:57;;;;;;;24.25;12.13;;;;;;;;;;5072540;28;20284;-76
2022/03/06 03:04:23;;;;;;;32.15;12.80;;;;;;;;;;5075276;28;20197;-76
2022/03/06 03:06:50;;;;;;;22.38;10.70;;;;;;;;;;5075135;28;20214;-75
2022/03/06 03:09:19;;;;;;;27.08;13.80;;;;;;;;;;4941000;28;20228;-76
2022/03/06 03:14:31;;;;;;;37.10;12.60;;;;;;;;;;5193058;27;20828;-76
2022/03/06 03:16:58;;;;;;;26.23;13.35;;;;;;;;;;5164262;27;20260;-75
2022/03/06 03:19:24;;;;;;;27.02;13.80;;;;;;;;;;5136799;27;20194;-74
2022/03/06 03:21:50;;;;;;;23.55;12.35;;;;;;;;;;5151008;27;20593;-77
2022/03/06 03:24:16;;;;;;;24.70;12.00;;;;;;;;;;5157114;27;20195;-75
2022/03/06 03:26:42;;;;;;;25.25;13.07;;;;;;;;;;5138069;27;20983;-76
2022/03/06 03:29:08;;;;;;;19.98;12.40;;;;;;;;;;5121076;27;20195;-76
2022/03/06 03:31:34;;;;;;;25.67;13.23;;;;;;;;;;5018505;28;20592;-76
2022/03/06 03:34:00;;;;;;;24.98;12.82;;;;;;;;;;4956575;28;20263;-76
2022/03/06 03:38:59;;;;;;;28.52;13.10;;;;;;;;;;5193402;27;20291;-76
2022/03/06 03:41:25;;;;;;;20.92;12.15;;;;;;;;;;5187944;27;20181;-76
2022/03/06 03:43:51;;;;;;;26.10;13.40;;;;;;;;;;5192307;27;20192;-75
2022/03/06 03:46:18;;;;;;;23.63;12.60;;;;;;;;;;5177073;27;20459;-75
2022/03/06 03:48:44;;;;;;;23.67;11.90;;;;;;;;;;5079910;28;20518;-76
2022/03/06 03:51:10;;;;;;;23.52;14.10;;;;;;;;;;5037927;28;20669;-78
2022/03/06 03:53:36;;;;;;;22.80;14.35;;;;;;;;;;5042648;28;20189;-76
2022/03/06 03:56:04;;;;;;;23.45;12.77;;;;;;;;;;5017269;28;20235;-76
2022/03/06 03:58:30;;;;;;;26.08;13.50;;;;;;;;;;4737664;29;20240;-76
2022/03/06 04:02:26;;;;;;;21.30;11.52;;;;;;;;;;5193233;27;20488;-75
2022/03/06 04:04:52;;;;;;;25.20;11.55;;;;;;;;;;5187332;27;20195;-75
2022/03/06 04:07:18;;;;;;;22.27;12.48;;;;;;;;;;5174471;27;20210;-75
2022/03/06 04:09:44;;;;;;;24.65;13.25;;;;;;;;;;5166515;27;20218;-75
2022/03/06 04:12:10;;;;;;;19.83;12.35;;;;;;;;;;5114852;28;20193;-74
2022/03/06 04:14:36;;;;;;;20.25;12.07;;;;;;;;;;5012940;28;20208;-76
2022/03/06 04:17:02;;;;;;;19.05;11.57;;;;;;;;;;5025792;28;20217;-75
2022/03/06 04:19:28;;;;;;;21.83;12.25;;;;;;;;;;4919930;28;20381;-76
2022/03/06 04:21:54;;;;;;;20.43;12.03;;;;;;;;;;4917379;28;20232;-75
2022/03/06 04:26:58;;;;;;;19.85;13.95;;;;;;;;;;5178129;27;20495;-75
2022/03/06 04:29:25;;;;;;;23.48;12.82;;;;;;;;;;5170452;27;20636;-75
2022/03/06 04:31:51;;;;;;;21.98;12.23;;;;;;;;;;5212452;27;20187;-77
2022/03/06 04:34:17;;;;;;;26.45;13.65;;;;;;;;;;5196673;27;20195;-77
2022/03/06 04:36:43;;;;;;;23.60;12.60;;;;;;;;;;5140470;27;20647;-75
2022/03/06 04:39:09;;;;;;;20.10;11.83;;;;;;;;;;5080526;28;20280;-76
2022/03/06 04:41:35;;;;;;;19.17;12.23;;;;;;;;;;5025128;28;20839;-74
2022/03/06 04:44:01;;;;;;;18.77;11.93;;;;;;;;;;4982122;28;20631;-74
2022/03/06 04:46:27;;;;;;;23.63;13.50;;;;;;;;;;4866677;29;21024;-75
2022/03/06 04:50:54;;;;;;;19.52;12.95;;;;;;;;;;5192895;27;20809;-76
2022/03/06 04:53:20;;;;;;;22.60;12.27;;;;;;;;;;5185900;27;20608;-76
2022/03/06 04:55:46;;;;;;;24.70;12.98;;;;;;;;;;5168030;27;20610;-76
2022/03/06 04:58:12;;;;;;;20.10;11.85;;;;;;;;;;5150163;27;20246;-76
2022/03/06 05:00:38;;;;;;;24.58;12.02;;;;;;;;;;5141576;27;20252;-75
2022/03/06 05:03:04;;;;;;;23.00;12.93;;;;;;;;;;5119496;27;20203;-77
2022/03/06 05:05:30;;;;;;;21.25;12.70;;;;;;;;;;5133819;27;20195;-75
2022/03/06 05:07:56;;;;;;;23.02;13.23;;;;;;;;;;5048581;28;20745;-75
2022/03/06 05:10:22;;;;;;;17.55;11.50;;;;;;;;;;4965832;28;20265;-77
2022/03/06 05:15:22;;;;;;;20.85;13.05;;;;;;;;;;5191896;27;20285;-75
2022/03/06 05:17:48;;;;;;;23.17;11.77;;;;;;;;;;5170229;27;20197;-77
2022/03/06 05:20:14;;;;;;;24.55;14.77;;;;;;;;;;5212332;27;20635;-77
2022/03/06 05:22:40;;;;;;;26.65;15.07;;;;;;;;;;5212740;27;20633;-76
2022/03/06 05:25:07;;;;;;;21.52;13.45;;;;;;;;;;5154894;27;20192;-76
2022/03/06 05:27:33;;;;;;;24.15;12.68;;;;;;;;;;5142253;27;20200;-76
2022/03/06 05:29:59;;;;;;;21.90;12.85;;;;;;;;;;5150015;27;20198;-76
2022/03/06 05:32:25;;;;;;;22.13;13.00;;;;;;;;;;5043622;28;20196;-76
2022/03/06 05:34:51;;;;;;;22.33;12.57;;;;;;;;;;4793287;28;20236;-77
2022/03/06 05:39:56;;;;;;;26.00;13.75;;;;;;;;;;5193212;27;20489;-76
2022/03/06 05:42:22;;;;;;;27.90;13.50;;;;;;;;;;5187721;27;20184;-77
2022/03/06 05:44:48;;;;;;;18.90;12.57;;;;;;;;;;5177457;27;20265;-76
2022/03/06 05:47:14;;;;;;;20.30;11.57;;;;;;;;;;5153238;27;20271;-76
2022/03/06 05:49:40;;;;;;;20.48;11.98;;;;;;;;;;5120243;28;20595;-74
2022/03/06 05:52:06;;;;;;;18.70;12.25;;;;;;;;;;5116546;28;20187;-75
2022/03/06 05:54:32;;;;;;;21.23;13.27;;;;;;;;;;5121131;28;20554;-75
2022/03/06 05:56:58;;;;;;;22.02;12.05;;;;;;;;;;5073656;28;20212;-74
2022/03/06 05:59:25;;;;;;;23.20;12.63;;;;;;;;;;5027460;28;20236;-77
2022/03/06 06:04:22;;;;;;;21.83;12.52;;;;;;;;;;5192391;27;20481;-76
2022/03/06 06:06:48;;;;;;;17.83;10.65;;;;;;;;;;5174086;27;20231;-74
2022/03/06 06:09:14;;;;;;;28.30;12.73;;;;;;;;;;5170922;27;20679;-76
2022/03/06 06:11:40;;;;;;;21.80;13.40;;;;;;;;;;5169970;27;20572;-77
2022/03/06 06:14:06;;;;;;;20.35;11.77;;;;;;;;;;5081077;28;20202;-77
2022/03/06 06:16:32;;;;;;;22.13;11.90;;;;;;;;;;5000993;28;20217;-76
2022/03/06 06:18:58;;;;;;;23.40;12.38;;;;;;;;;;5017628;28;20219;-75
2022/03/06 06:21:24;;;;;;;22.08;13.43;;;;;;;;;;4912591;28;20616;-77
2022/03/06 06:23:50;;;;;;;22.92;13.10;;;;;;;;;;4882498;29;20262;-77
2022/03/06 06:28:36;;;;;;;22.13;13.18;;;;;;;;;;5192980;27;20474;-76
2022/03/06 06:31:02;;;;;;;28.45;13.40;;;;;;;;;;5187822;27;20228;-76
2022/03/06 06:33:28;;;;;;;21.80;12.80;;;;;;;;;;5191319;27;20219;-75
2022/03/06 06:35:54;;;;;;;21.98;13.38;;;;;;;;;;5185754;27;20212;-76
2022/03/06 06:38:23;;;;;;;23.73;13.35;;;;;;;;;;5119092;28;20199;-76
2022/03/06 06:40:50;;;;;;;25.58;14.55;;;;;;;;;;5094945;28;20259;-74
2022/03/06 06:43:17;;;;;;;20.90;12.93;;;;;;;;;;5096351;28;20246;-75
2022/03/06 06:45:43;;;;;;;25.08;13.52;;;;;;;;;;4992330;28;20212;-75
2022/03/06 06:48:08;;;;;;;20.25;12.50;;;;;;;;;;4960601;28;20228;-75
2022/03/06 06:53:17;;;;;;;20.45;12.77;;;;;;;;;;5192805;27;20488;-75
2022/03/06 06:55:43;;;;;;;25.13;13.63;;;;;;;;;;5183507;27;20209;-76
2022/03/06 06:58:09;;;;;;;21.25;12.52;;;;;;;;;;5151368;27;20273;-75
2022/03/06 07:00:36;;;;;;;22.15;13.32;;;;;;;;;;5170605;27;20651;-76
2022/03/06 07:03:02;;;;;;;22.05;14.32;;;;;;;;;;5114727;27;20198;-77
2022/03/06 07:05:28;;;;;;;20.75;13.38;;;;;;;;;;5085095;28;20360;-76
2022/03/06 07:07:54;;;;;;;22.48;13.98;;;;;;;;;;5030263;28;20203;-77
2022/03/06 07:10:20;;;;;;;23.27;14.52;;;;;;;;;;5010484;28;20282;-75
2022/03/06 07:12:48;;;;;;;27.38;14.00;;;;;;;;;;4901767;28;21166;-74
2022/03/06 07:18:14;;;;;;;21.80;13.15;;;;;;;;;;5175139;27;21026;-74
2022/03/06 07:20:40;;;;;;;20.30;13.45;;;;;;;;;;5187420;27;20199;-77
2022/03/06 07:23:06;;;;;;;23.70;13.50;;;;;;;;;;5172138;27;20189;-76
2022/03/06 07:25:32;;;;;;;25.23;13.65;;;;;;;;;;5168946;27;20430;-76
2022/03/06 07:27:58;;;;;;;21.13;13.90;;;;;;;;;;5133084;27;20214;-76
2022/03/06 07:30:27;;;;;;;24.80;15.20;;;;;;;;;;5144385;27;20196;-76
2022/03/06 07:32:53;;;;;;;24.67;15.27;;;;;;;;;;5103885;27;21227;-75
2022/03/06 07:35:20;;;;;;;24.08;14.52;;;;;;;;;;5076337;28;20243;-75
2022/03/06 07:37:46;;;;;;;24.00;13.93;;;;;;;;;;5039030;28;20214;-77
2022/03/06 07:42:42;;;;;;;24.05;14.43;;;;;;;;;;5193167;27;20988;-75
2022/03/06 07:45:08;;;;;;;25.48;16.25;;;;;;;;;;5186840;27;20184;-76
2022/03/06 07:47:34;;;;;;;26.40;14.77;;;;;;;;;;5172340;27;20217;-77
2022/03/06 07:50:00;;;;;;;23.17;14.47;;;;;;;;;;5170739;27;20202;-76
2022/03/06 07:52:26;;;;;;;23.83;14.55;;;;;;;;;;5068773;28;20440;-74
2022/03/06 07:54:52;;;;;;;24.25;14.50;;;;;;;;;;4997525;28;20202;-76
2022/03/06 07:57:18;;;;;;;26.43;15.40;;;;;;;;;;4900839;28;20245;-76
2022/03/06 07:59:47;;;;;;;32.47;16.20;;;;;;;;;;4819668;29;20543;-74
2022/03/06 08:02:13;;;;;;;23.75;15.93;;;;;;;;;;4759490;29;20595;-75
2022/03/06 08:06:53;;;;;;;23.50;14.82;;;;;;;;;;5178860;27;20497;-78
2022/03/06 08:09:20;;;;;;;29.92;16.75;;;;;;;;;;5187695;27;20197;-76
2022/03/06 08:11:46;;;;;;;26.30;14.00;;;;;;;;;;5172420;27;20271;-77
2022/03/06 08:14:12;;;;;;;22.83;14.25;;;;;;;;;;5189604;27;20188;-78
2022/03/06 08:16:38;;;;;;;28.17;16.27;;;;;;;;;;5163375;27;20217;-77
2022/03/06 08:19:04;;;;;;;24.40;15.38;;;;;;;;;;5150675;27;20213;-77
2022/03/06 08:21:31;;;;;;;26.77;16.38;;;;;;;;;;5166094;27;20595;-78
2022/03/06 08:23:57;;;;;;;28.65;16.55;;;;;;;;;;5142532;27;20218;-77
2022/03/06 08:26:23;;;;;;;25.08;15.90;;;;;;;;;;4964722;28;20237;-78
2022/03/06 08:31:50;;;;;;;23.45;15.75;;;;;;;;;;5193123;27;20474;-76
2022/03/06 08:34:16;;;;;;;25.92;17.02;;;;;;;;;;5168109;27;20197;-78
2022/03/06 08:36:42;;;;;;;29.73;18.13;;;;;;;;;;5179482;27;20204;-78
2022/03/06 08:39:08;;;;;;;27.95;16.30;;;;;;;;;;5170636;27;20422;-78
2022/03/06 08:41:34;;;;;;;25.00;15.53;;;;;;;;;;5087136;28;20194;-78
2022/03/06 08:44:00;;;;;;;26.30;15.43;;;;;;;;;;5055194;28;20491;-77
2022/03/06 08:46:26;;;;;;;26.80;16.63;;;;;;;;;;5058831;28;20225;-78
2022/03/06 08:48:52;;;;;;;24.27;14.68;;;;;;;;;;5017571;28;20646;-76
2022/03/06 08:51:18;;;;;;;22.37;15.50;;;;;;;;;;4996137;28;20302;-77
2022/03/06 08:56:23;;;;;;;24.45;14.57;;;;;;;;;;5183263;27;20514;-78
2022/03/06 08:58:49;;;;;;;22.73;14.95;;;;;;;;;;5187643;27;20192;-77
2022/03/06 09:01:15;;;;;;;31.13;14.40;;;;;;;;;;5190683;27;20595;-77
2022/03/06 09:03:41;;;;;;;22.02;14.65;;;;;;;;;;5170573;27;20504;-75
2022/03/06 09:06:07;;;;;;;24.42;15.23;;;;;;;;;;5146559;27;20576;-79
2022/03/06 09:08:33;;;;;;;22.27;15.00;;;;;;;;;;5093124;27;20283;-75
2022/03/06 09:10:59;;;;;;;23.02;14.63;;;;;;;;;;5012747;28;20526;-77
2022/03/06 09:13:25;;;;;;;23.67;14.67;;;;;;;;;;4972717;28;20306;-76
2022/03/06 09:15:51;;;;;;;40.45;15.50;;;;;;;;;;4819822;28;20584;-76
2022/03/06 09:20:34;;;;;;;19.83;12.82;;;;;;;;;;5192589;27;20496;-77
2022/03/06 09:23:01;;;;;;;22.20;12.43;;;;;;;;;;5187586;27;20196;-78
2022/03/06 09:25:32;;;;;;;30.38;15.10;;;;;;;;;;5190452;27;20267;-76
2022/03/06 09:27:58;;;;;;;21.58;13.15;;;;;;;;;;5170110;27;20209;-79
2022/03/06 09:30:24;;;;;;;23.25;12.20;;;;;;;;;;5143275;27;20270;-77
2022/03/06 09:32:50;;;;;;;20.23;12.33;;;;;;;;;;5065249;28;20381;-78
2022/03/06 09:35:16;;;;;;;23.60;14.13;;;;;;;;;;5039586;28;20432;-77
2022/03/06 09:37:43;;;;;;;23.40;13.80;;;;;;;;;;5036332;28;20510;-77
2022/03/06 09:40:09;;;;;;;24.55;15.38;;;;;;;;;;4915205;28;20219;-77
2022/03/06 09:45:14;;;;;;;23.75;14.32;;;;;;;;;;5191709;27;20504;-76
2022/03/06 09:47:40;;;;;;;23.15;14.73;;;;;;;;;;5167166;27;20204;-78
2022/03/06 09:50:07;;;;;;;25.00;14.75;;;;;;;;;;5171032;27;20193;-77
2022/03/06 09:52:33;;;;;;;24.70;15.80;;;;;;;;;;5170274;27;20197;-78
2022/03/06 09:55:00;;;;;;;23.67;14.95;;;;;;;;;;5150560;27;20190;-76
2022/03/06 09:57:26;;;;;;;28.30;15.45;;;;;;;;;;5158901;27;20215;-76
2022/03/06 09:59:52;;;;;;;23.60;15.33;;;;;;;;;;5121264;27;20200;-76
2022/03/06 10:02:18;;;;;;;27.70;14.13;;;;;;;;;;4956533;28;20432;-76
2022/03/06 10:04:46;;;;;;;28.75;16.40;;;;;;;;;;4854394;29;20219;-76
2022/03/06 10:09:12;;;;;;;27.05;15.52;;;;;;;;;;5193049;27;20480;-77
2022/03/06 10:11:39;;;;;;;24.02;15.73;;;;;;;;;;5178741;27;20196;-76
2022/03/06 10:14:05;;;;;;;23.30;15.23;;;;;;;;;;5150856;27;20192;-77
2022/03/06 10:16:31;;;;;;;28.50;15.87;;;;;;;;;;5180491;27;20205;-78
2022/03/06 10:18:57;;;;;;;26.00;15.45;;;;;;;;;;5158989;27;20466;-76
2022/03/06 10:21:23;;;;;;;19.33;13.77;;;;;;;;;;5112382;28;20187;-76
2022/03/06 10:23:54;;;;;;;24.20;15.40;;;;;;;;;;5066970;28;20658;-76
2022/03/06 10:26:21;;;;;;;24.85;14.85;;;;;;;;;;4997322;28;20459;-76
2022/03/06 10:28:47;;;;;;;22.77;14.85;;;;;;;;;;4811297;28;23187;-78
2022/03/06 10:34:10;;;;;;;25.80;16.05;;;;;;;;;;5192475;27;20303;-77
2022/03/06 10:36:36;;;;;;;20.85;15.48;;;;;;;;;;5148084;27;20208;-76
2022/03/06 10:39:04;;;;;;;25.23;15.82;;;;;;;;;;5169565;27;20238;-77
2022/03/06 10:41:35;;;;;;;19.98;13.88;;;;;;;;;;5173727;27;20523;-76
2022/03/06 10:44:01;;;;;;;20.83;14.00;;;;;;;;;;5156585;27;20556;-77
2022/03/06 10:46:27;;;;;;;17.98;13.70;;;;;;;;;;5138540;27;20706;-78
2022/03/06 10:48:57;;;;;;;16.85;12.43;;;;;;;;;;5075568;28;20200;-77
2022/03/06 10:51:23;;;;;;;16.80;12.30;;;;;;;;;;4909074;28;20686;-78
2022/03/06 10:53:52;;;;;;;19.33;13.60;;;;;;;;;;4823011;29;20201;-78
2022/03/06 10:57:16;;;;;;;16.63;12.20;;;;;;;;;;5175523;27;20501;-79
2022/03/06 10:59:44;;;;;;;17.30;12.40;;;;;;;;;;5187608;27;20417;-77
2022/03/06 11:02:10;;;;;;;17.43;12.13;;;;;;;;;;5183841;27;20574;-78
2022/03/06 11:04:37;;;;;;;17.63;11.07;;;;;;;;;;5150608;27;20430;-78
2022/03/06 11:07:03;;;;;;;14.43;10.57;;;;;;;;;;5129464;27;20449;-77
2022/03/06 11:09:29;;;;;;;27.13;11.30;;;;;;;;;;5067991;28;20761;-77
2022/03/06 11:11:55;;;;;;;16.17;11.23;;;;;;;;;;5044046;28;20467;-77
2022/03/06 11:14:22;;;;;;;16.97;10.20;;;;;;;;;;5014029;28;20807;-76
2022/03/06 11:16:48;;;;;;;14.20;10.40;;;;;;;;;;4991419;28;20811;-76
2022/03/06 11:21:29;;;;;;;14.83;9.57;;;;;;;;;;5193203;27;20484;-77
2022/03/06 11:23:57;;;;;;;15.60;11.83;;;;;;;;;;5170983;27;20430;-78
2022/03/06 11:26:38;;;;;;;14.70;10.27;;;;;;;;;;5182099;27;20517;-78
2022/03/06 11:29:22;;;;;;;16.23;9.63;;;;;;;;;;5110231;28;20437;-77
2022/03/06 11:31:52;;;;;;;17.60;9.70;;;;;;;;;;5065128;28;20498;-76
2022/03/06 11:34:29;;;;;;;13.27;10.43;;;;;;;;;;5027688;28;20436;-77
2022/03/06 11:36:57;;;;;;;12.80;10.20;;;;;;;;;;4994025;28;20457;-78
2022/03/06 11:39:33;;;;;;;15.20;10.33;;;;;;;;;;4872610;29;20561;-76
2022/03/06 11:44:40;;;;;;;15.07;10.40;;;;;;;;;;5192810;27;20489;-76
2022/03/06 11:47:18;;;;;;;14.83;10.80;;;;;;;;;;5171763;27;20446;-75
2022/03/06 11:49:54;;;;;;;12.60;9.73;;;;;;;;;;5161114;27;20427;-78
2022/03/06 11:52:34;;;;;;;12.07;9.90;;;;;;;;;;5170439;27;20429;-77
2022/03/06 11:55:01;;;;;;;14.20;11.00;;;;;;;;;;5130568;27;20481;-76
2022/03/06 11:57:37;;;;;;;13.93;10.07;;;;;;;;;;5122536;27;20482;-76
2022/03/06 12:00:13;;;;;;;15.50;10.67;;;;;;;;;;5053207;28;20972;-76
2022/03/06 12:02:49;;;;;;;15.87;11.40;;;;;;;;;;4973400;28;20900;-76
2022/03/06 12:05:16;;;;;;;23.33;14.70;;;;;;;;;;4713423;30;20413;-77
2022/03/06 12:08:54;;;;;;;19.57;14.40;;;;;;;;;;5192798;27;20485;-77
2022/03/06 12:11:21;;;;;;;17.53;13.13;;;;;;;;;;5187811;27;20425;-77
2022/03/06 12:13:50;;;;;;;19.50;13.13;;;;;;;;;;5172924;27;20430;-76
2022/03/06 12:16:16;;;;;;;19.20;13.30;;;;;;;;;;5133919;27;20432;-79
2022/03/06 12:19:01;;;;;;;15.70;11.90;;;;;;;;;;5070927;28;20450;-77
2022/03/06 12:21:36;;;;;;;14.73;10.77;;;;;;;;;;4990984;28;20434;-76
2022/03/06 12:24:11;;;;;;;18.10;13.83;;;;;;;;;;4979186;28;20451;-77
2022/03/06 12:26:44;;;;;;;16.43;13.10;;;;;;;;;;4895948;29;20803;-77
2022/03/06 12:31:35;;;;;;;16.20;12.60;;;;;;;;;;5193136;27;20290;-76
2022/03/06 12:34:21;;;;;;;19.93;13.10;;;;;;;;;;5178855;27;20513;-77
2022/03/06 12:36:54;;;;;;;21.00;12.20;;;;;;;;;;5161128;27;20522;-78
2022/03/06 12:39:20;;;;;;;18.30;13.30;;;;;;;;;;5125930;28;20410;-77
2022/03/06 12:41:47;;;;;;;16.03;12.30;;;;;;;;;;5089442;28;20397;-78
2022/03/06 12:44:13;;;;;;;16.60;12.23;;;;;;;;;;4991101;28;20439;-78
2022/03/06 12:46:39;;;;;;;15.33;11.73;;;;;;;;;;4880102;29;20451;-77
2022/03/06 12:49:05;;;;;;;14.70;12.30;;;;;;;;;;4797250;29;21070;-77
2022/03/06 12:51:37;;;;;;;19.87;15.17;;;;;;;;;;4820204;29;20802;-77
2022/03/06 12:55:46;;;;;;;16.20;13.57;;;;;;;;;;5188715;27;20521;-77
2022/03/06 12:58:12;;;;;;;14.70;12.50;;;;;;;;;;5187567;27;20415;-76
2022/03/06 13:00:38;;;;;;;16.43;13.97;;;;;;;;;;5192005;27;21083;-75
2022/03/06 13:03:07;;;;;;;18.03;12.90;;;;;;;;;;5189686;27;20422;-77
2022/03/06 13:05:34;;;;;;;20.87;13.20;;;;;;;;;;5123634;27;20430;-77
2022/03/06 13:08:00;;;;;;;17.30;12.93;;;;;;;;;;5077862;28;20393;-77
2022/03/06 13:10:27;;;;;;;17.13;13.70;;;;;;;;;;5080997;28;20427;-77
2022/03/06 13:12:54;;;;;;;19.60;14.63;;;;;;;;;;5052425;28;20525;-76
2022/03/06 13:15:20;;;;;;;19.70;14.27;;;;;;;;;;5028124;28;20472;-74
2022/03/06 13:20:31;;;;;;;16.80;11.90;;;;;;;;;;5268182;22;20364;-78
2022/03/06 13:22:57;;;;;;;17.93;11.33;;;;;;;;;;5147627;27;20817;-76
2022/03/06 13:25:23;;;;;;;18.43;13.10;;;;;;;;;;5134331;27;20438;-76
2022/03/06 13:27:53;;;;;;;18.77;11.97;;;;;;;;;;5107707;28;20428;-77
2022/03/06 13:30:20;;;;;;;15.20;13.00;;;;;;;;;;5106166;28;20425;-77
2022/03/06 13:32:56;;;;;;;18.00;12.85;;;;;;;;;;5019639;28;20919;-77
2022/03/06 13:35:39;;;;;;;17.98;12.57;;;;;;;;;;4985341;28;20207;-77
2022/03/06 13:38:06;;;;;;;17.60;12.97;;;;;;;;;;4920944;28;20219;-77
2022/03/06 13:42:03;;;;;;;15.17;11.97;;;;;;;;;;5186595;27;20495;-77
2022/03/06 13:44:29;;;;;;;14.53;11.87;;;;;;;;;;5176836;27;20479;-77
2022/03/06 13:46:55;;;;;;;13.40;10.73;;;;;;;;;;5146966;27;20464;-77
2022/03/06 13:49:22;;;;;;;19.07;11.93;;;;;;;;;;5130245;27;20459;-76
2022/03/06 13:52:14;;;;;;;16.60;12.97;;;;;;;;;;5077376;28;20429;-75
2022/03/06 13:54:40;;;;;;;15.30;10.80;;;;;;;;;;5040466;28;21022;-78
2022/03/06 13:57:07;;;;;;;15.47;10.80;;;;;;;;;;4992981;28;20473;-75
2022/03/06 13:59:33;;;;;;;18.60;13.53;;;;;;;;;;4887517;29;20451;-75
2022/03/06 14:02:08;;;;;;;14.70;11.30;;;;;;;;;;4788753;29;20494;-75
2022/03/06 14:06:15;;;;;;;15.13;12.37;;;;;;;;;;5184119;27;20847;-77
2022/03/06 14:08:42;;;;;;;18.80;13.90;;;;;;;;;;5170668;27;20428;-75
2022/03/06 14:11:08;;;;;;;16.03;12.00;;;;;;;;;;5191329;27;20459;-76
2022/03/06 14:13:37;;;;;;;12.67;11.00;;;;;;;;;;5191002;27;20424;-76
2022/03/06 14:16:11;;;;;;;12.90;10.60;;;;;;;;;;5175323;27;20449;-77
2022/03/06 14:18:41;;;;;;;12.67;10.57;;;;;;;;;;5077479;28;20484;-77
2022/03/06 14:21:10;;;;;;;13.20;11.13;;;;;;;;;;5002839;28;20498;-77
2022/03/06 14:23:36;;;;;;;14.00;10.95;;;;;;;;;;4959184;28;20913;-77
2022/03/06 14:28:10;;;;;;;15.07;12.20;;;;;;;;;;5192362;27;21017;-77
2022/03/06 14:30:36;;;;;;;18.10;15.17;;;;;;;;;;5187818;27;20392;-77
2022/03/06 14:33:04;;;;;;;11.83;9.70;;;;;;;;;;5186743;27;20436;-77
2022/03/06 14:35:30;;;;;;;11.13;9.97;;;;;;;;;;5174901;27;20424;-77
2022/03/06 14:37:56;;;;;;;12.40;10.70;;;;;;;;;;5156028;27;20423;-76
2022/03/06 14:40:22;;;;;;;14.37;10.70;;;;;;;;;;5135949;27;20486;-77
2022/03/06 14:42:49;;;;;;;12.60;10.67;;;;;;;;;;5162421;27;20425;-77
2022/03/06 14:45:15;;;;;;;13.83;12.13;;;;;;;;;;5146621;27;20429;-77
2022/03/06 14:47:41;;;;;;;13.63;10.93;;;;;;;;;;5025274;27;20488;-76
2022/03/06 14:50:07;;;;;;;14.82;11.32;;;;;;;;;;4992051;28;20433;-76
2022/03/06 14:53:52;;;;;;;13.73;11.50;;;;;;;;;;5192432;27;20481;-77
2022/03/06 14:56:19;;;;;;;19.60;14.23;;;;;;;;;;5184321;27;20217;-76
2022/03/06 14:58:45;;;;;;;14.07;11.30;;;;;;;;;;5173530;27;20198;-77
2022/03/06 15:01:12;;;;;;;13.65;11.48;;;;;;;;;;5168301;27;20659;-77
2022/03/06 15:03:38;;;;;;;20.60;14.73;;;;;;;;;;5147253;27;20194;-78
2022/03/06 15:06:05;;;;;;;16.95;13.57;;;;;;;;;;5092170;28;20202;-77
2022/03/06 15:08:31;;;;;;;23.73;16.90;;;;;;;;;;5089219;28;20212;-76
2022/03/06 15:10:57;;;;;;;21.38;15.10;;;;;;;;;;5123373;27;20277;-77
2022/03/06 15:13:23;;;;;;;13.83;11.70;;;;;;;;;;5120653;27;20212;-77
2022/03/06 15:18:26;;;;;;;12.95;11.43;;;;;;;;;;5192223;27;20496;-77
2022/03/06 15:20:52;;;;;;;13.90;12.00;;;;;;;;;;5187647;27;20186;-77
2022/03/06 15:23:19;;;;;;;14.43;12.93;;;;;;;;;;5191911;27;20836;-77
2022/03/06 15:25:45;;;;;;;13.27;11.40;;;;;;;;;;5187026;27;20239;-77
2022/03/06 15:28:13;;;;;;;12.67;11.37;;;;;;;;;;5153392;27;20230;-77
2022/03/06 15:30:39;;;;;;;12.63;11.33;;;;;;;;;;5145145;27;20431;-77
2022/03/06 15:33:05;;;;;;;16.70;11.57;;;;;;;;;;5083116;27;20442;-77
2022/03/06 15:35:31;;;;;;;17.37;11.13;;;;;;;;;;5003694;28;20515;-77
2022/03/06 15:37:57;;;;;;;12.97;11.57;;;;;;;;;;4982218;28;20574;-77
2022/03/06 15:42:54;;;;;;;14.97;11.13;;;;;;;;;;5193167;27;20289;-75
2022/03/06 15:45:20;;;;;;;13.83;10.93;;;;;;;;;;5186908;27;20435;-76
2022/03/06 15:47:46;;;;;;;14.07;12.30;;;;;;;;;;5170938;27;20485;-75
2022/03/06 15:50:13;;;;;;;14.53;12.13;;;;;;;;;;5154475;27;20911;-75